createdAt,value
2022-10-10T00:01:27.439Z,76004.41
2022-10-10T00:03:54.698Z,76000.28
2022-10-10T00:06:21.829Z,75996.19
2022-10-10T00:08:53.820Z,75992.06
2022-10-10T00:11:21.532Z,75987.97
2022-10-10T00:13:48.823Z,75990.00
2022-10-10T00:16:16.286Z,75990.00
2022-10-10T00:18:43.587Z,75987.97
2022-10-10T00:21:13.337Z,75992.06
2022-10-10T00:23:40.346Z,76000.28
2022-10-10T00:26:09.436Z,76002.34
2022-10-10T00:28:38.967Z,76008.50
2022-10-10T00:31:06.835Z,76012.63
2022-10-10T00:33:34.114Z,76020.84
2022-10-10T00:36:01.953Z,76027.00
2022-10-10T00:38:29.072Z,76045.50
2022-10-10T00:40:56.308Z,76061.94
2022-10-10T00:43:24.041Z,76057.84
2022-10-10T00:45:52.048Z,76072.22
2022-10-10T00:48:19.140Z,76086.63
2022-10-10T00:50:46.161Z,76084.56
2022-10-10T00:53:13.833Z,76094.84
2022-10-10T00:55:40.836Z,76090.72
2022-10-10T00:58:08.852Z,76094.84
2022-10-10T01:00:36.385Z,76094.84
2022-10-10T01:03:03.620Z,76103.06
2022-10-10T01:05:31.227Z,76098.94
2022-10-10T01:07:58.268Z,76103.06
2022-10-10T01:10:25.355Z,76111.28
2022-10-10T01:12:52.881Z,76107.16
2022-10-10T01:15:26.063Z,76119.50
2022-10-10T01:17:56.119Z,76113.34
2022-10-10T01:20:41.409Z,76127.72
2022-10-10T01:23:20.522Z,76127.72
2022-10-10T01:25:56.593Z,76123.63
2022-10-10T01:28:45.857Z,76129.78
2022-10-10T01:31:13.588Z,76135.94
2022-10-10T01:33:49.857Z,76140.06
2022-10-10T01:36:16.880Z,76146.22
2022-10-10T01:38:47.067Z,76150.34
2022-10-10T01:41:14.969Z,76154.44
2022-10-10T01:43:42.552Z,76168.84
2022-10-10T01:46:17.001Z,76177.06
2022-10-10T01:48:45.104Z,76181.16
2022-10-10T01:51:15.223Z,76177.06
2022-10-10T01:53:43.899Z,76172.94
2022-10-10T01:56:15.166Z,76181.16
2022-10-10T01:58:45.239Z,76179.09
2022-10-10T02:01:15.140Z,76187.31
2022-10-10T02:03:46.136Z,76191.44
2022-10-10T02:06:15.434Z,76189.38
2022-10-10T02:08:45.031Z,76187.31
2022-10-10T02:11:13.361Z,76189.38
2022-10-10T02:13:44.092Z,76177.06
2022-10-10T02:16:28.266Z,76179.09
2022-10-10T02:18:55.437Z,76185.28
2022-10-10T02:21:22.495Z,76189.38
2022-10-10T02:23:50.489Z,76203.78
2022-10-10T02:26:17.877Z,76205.81
2022-10-10T02:28:47.460Z,76209.94
2022-10-10T02:31:16.061Z,76209.94
2022-10-10T02:33:50.613Z,76209.94
2022-10-10T02:36:17.945Z,76214.06
2022-10-10T02:38:45.067Z,76230.50
2022-10-10T02:41:12.966Z,76226.38
2022-10-10T02:43:40.401Z,76230.50
2022-10-10T02:46:07.987Z,76238.72
2022-10-10T02:48:35.612Z,76234.59
2022-10-10T02:51:02.636Z,76230.50
2022-10-10T02:53:31.960Z,76251.03
2022-10-10T02:55:59.017Z,76246.94
2022-10-10T02:58:26.601Z,76246.94
2022-10-10T03:00:53.840Z,76232.56
2022-10-10T03:03:20.917Z,76238.72
2022-10-10T03:05:49.433Z,76242.81
2022-10-10T03:08:17.069Z,76246.94
2022-10-10T03:10:57.650Z,76238.72
2022-10-10T03:13:25.656Z,76253.09
2022-10-10T03:15:52.876Z,76251.03
2022-10-10T03:18:21.361Z,76255.16
2022-10-10T03:20:52.522Z,76255.16
2022-10-10T03:23:19.631Z,76259.28
2022-10-10T03:25:46.665Z,76242.81
2022-10-10T03:28:13.775Z,76242.81
2022-10-10T03:30:40.955Z,76246.94
2022-10-10T03:33:08.306Z,76242.81
2022-10-10T03:35:35.499Z,76246.94
2022-10-10T03:38:02.973Z,76234.59
2022-10-10T03:40:30.289Z,76228.44
2022-10-10T03:42:57.744Z,76230.50
2022-10-10T03:45:24.774Z,76226.38
2022-10-10T03:47:51.845Z,76228.44
2022-10-10T03:50:18.929Z,76222.28
2022-10-10T03:52:46.188Z,76218.16
2022-10-10T03:55:13.331Z,76201.72
2022-10-10T03:57:40.598Z,76205.81
2022-10-10T04:00:08.093Z,76193.50
2022-10-10T04:02:35.192Z,76187.31
2022-10-10T04:05:02.275Z,76189.38
2022-10-10T04:07:30.285Z,76189.38
2022-10-10T04:09:57.678Z,76185.28
2022-10-10T04:12:25.066Z,76181.16
2022-10-10T04:14:52.102Z,76160.59
2022-10-10T04:17:19.205Z,76164.72
2022-10-10T04:19:46.380Z,76177.06
2022-10-10T04:22:14.427Z,76152.38
2022-10-10T04:24:41.556Z,76177.06
2022-10-10T04:27:08.835Z,76158.56
2022-10-10T04:29:35.855Z,76160.59
2022-10-10T04:32:03.015Z,76170.88
2022-10-10T04:34:30.093Z,76160.59
2022-10-10T04:36:57.173Z,76156.50
2022-10-10T04:39:24.296Z,76160.59
2022-10-10T04:41:51.637Z,76168.84
2022-10-10T04:44:19.275Z,76177.06
2022-10-10T04:46:46.387Z,76177.06
2022-10-10T04:49:13.474Z,76172.94
2022-10-10T04:51:40.839Z,76181.16
2022-10-10T04:54:08.115Z,76168.84
2022-10-10T04:56:35.253Z,76177.06
2022-10-10T04:59:02.394Z,76160.59
2022-10-10T05:01:30.096Z,76160.59
2022-10-10T05:03:57.720Z,76172.94
2022-10-10T05:06:24.780Z,76172.94
2022-10-10T05:08:52.523Z,76166.78
2022-10-10T05:11:19.540Z,76154.44
2022-10-10T05:13:50.716Z,76156.50
2022-10-10T05:16:18.138Z,76152.38
2022-10-10T05:18:45.749Z,76156.50
2022-10-10T05:21:12.771Z,76144.16
2022-10-10T05:23:41.771Z,76135.94
2022-10-10T05:26:08.878Z,76131.84
2022-10-10T05:28:36.693Z,76129.78
2022-10-10T05:31:04.184Z,76127.72
2022-10-10T05:33:31.254Z,76127.72
2022-10-10T05:36:05.099Z,76119.50
2022-10-10T05:38:34.616Z,76111.28
2022-10-10T05:41:02.158Z,76123.63
2022-10-10T05:43:29.702Z,76115.38
2022-10-10T05:45:56.709Z,76119.50
2022-10-10T05:48:23.797Z,76111.28
2022-10-10T05:50:51.699Z,76107.16
2022-10-10T05:53:18.819Z,76115.38
2022-10-10T05:55:45.879Z,76109.22
2022-10-10T05:58:57.479Z,76113.34
2022-10-10T06:01:24.632Z,76107.16
2022-10-10T06:03:55.925Z,76111.28
2022-10-10T06:06:25.038Z,76107.16
2022-10-10T06:08:52.366Z,76129.78
2022-10-10T06:11:20.655Z,76127.72
2022-10-10T06:13:51.065Z,76111.28
2022-10-10T06:16:22.026Z,76107.16
2022-10-10T06:18:49.228Z,76094.84
2022-10-10T06:21:18.141Z,76103.06
2022-10-10T06:23:45.531Z,76086.63
2022-10-10T06:26:12.578Z,76086.63
2022-10-10T06:28:40.555Z,76070.16
2022-10-10T06:31:08.396Z,76086.63
2022-10-10T06:33:37.245Z,76057.84
2022-10-10T06:36:05.539Z,76057.84
2022-10-10T06:38:32.650Z,76049.63
2022-10-10T06:41:03.397Z,76070.16
2022-10-10T06:43:30.511Z,76049.63
2022-10-10T06:45:57.736Z,76033.19
2022-10-10T06:48:25.394Z,76012.63
2022-10-10T06:50:58.875Z,76020.84
2022-10-10T06:53:27.013Z,76004.41
2022-10-10T06:55:54.934Z,75994.13
2022-10-10T06:58:22.517Z,75973.56
2022-10-10T07:00:50.556Z,75979.75
2022-10-10T07:03:17.801Z,75955.06
2022-10-10T07:05:45.235Z,75938.63
2022-10-10T07:08:12.286Z,75930.41
2022-10-10T07:10:40.002Z,75922.19
2022-10-10T07:13:07.799Z,75950.97
2022-10-10T07:15:34.930Z,75959.19
2022-10-10T07:18:03.417Z,75959.19
2022-10-10T07:20:31.395Z,75965.34
2022-10-10T07:22:58.494Z,75959.19
2022-10-10T07:25:25.543Z,75959.19
2022-10-10T07:27:52.790Z,75979.75
2022-10-10T07:30:19.981Z,75948.91
2022-10-10T07:32:47.086Z,75932.47
2022-10-10T07:35:14.125Z,75909.84
2022-10-10T07:37:41.621Z,75905.75
2022-10-10T07:40:09.304Z,75938.63
2022-10-10T07:42:37.369Z,75953.00
2022-10-10T07:45:05.386Z,75946.84
2022-10-10T07:47:32.571Z,75955.06
2022-10-10T07:49:59.579Z,75940.69
2022-10-10T07:52:27.002Z,75950.97
2022-10-10T07:54:54.102Z,75946.84
2022-10-10T07:57:21.169Z,75932.47
2022-10-10T07:59:48.353Z,75918.06
2022-10-10T08:02:15.537Z,75895.47
2022-10-10T08:04:43.125Z,75909.84
2022-10-10T08:07:10.207Z,75936.56
2022-10-10T08:09:37.565Z,75924.25
2022-10-10T08:12:06.769Z,75905.75
2022-10-10T08:14:34.021Z,75905.75
2022-10-10T08:17:01.272Z,75881.09
2022-10-10T08:19:28.556Z,75876.97
2022-10-10T08:21:55.627Z,75897.53
2022-10-10T08:24:22.662Z,75883.13
2022-10-10T08:26:50.995Z,75876.97
2022-10-10T08:29:18.465Z,75897.53
2022-10-10T08:31:45.514Z,75897.53
2022-10-10T08:34:14.764Z,75897.53
2022-10-10T08:36:41.882Z,75897.53
2022-10-10T08:39:11.008Z,75909.84
2022-10-10T08:41:39.562Z,75907.81
2022-10-10T08:44:14.579Z,75913.97
2022-10-10T08:46:49.016Z,75911.91
2022-10-10T08:49:22.314Z,75913.97
2022-10-10T08:51:55.006Z,75924.25
2022-10-10T08:54:22.553Z,75950.97
2022-10-10T08:56:50.260Z,75967.41
2022-10-10T08:59:24.789Z,75973.56
2022-10-10T09:02:17.915Z,75973.56
2022-10-10T09:04:39.401Z,75959.19
2022-10-10T09:07:15.856Z,75961.25
2022-10-10T09:10:15.500Z,75971.50
2022-10-10T09:12:53.311Z,75975.63
2022-10-10T09:15:23.394Z,75967.41
2022-10-10T09:17:57.419Z,75967.41
2022-10-10T09:20:31.528Z,75959.19
2022-10-10T09:23:07.831Z,75959.19
2022-10-10T09:25:38.514Z,75983.84
2022-10-10T09:28:07.874Z,75983.84
2022-10-10T09:30:36.102Z,75994.13
2022-10-10T09:33:20.298Z,75996.19
2022-10-10T09:35:47.719Z,75996.19
2022-10-10T09:38:34.593Z,75998.22
2022-10-10T09:41:03.664Z,75996.19
2022-10-10T09:43:32.514Z,75992.06
2022-10-10T09:45:59.859Z,75973.56
2022-10-10T09:48:56.233Z,75996.19
2022-10-10T09:51:23.327Z,76000.28
2022-10-10T09:53:51.677Z,75998.22
2022-10-10T09:56:26.304Z,75987.97
2022-10-10T09:58:53.932Z,75992.06
2022-10-10T10:01:22.399Z,75996.19
2022-10-10T10:04:23.311Z,75996.19
2022-10-10T10:06:54.053Z,75992.06
2022-10-10T10:09:23.183Z,75998.22
2022-10-10T10:11:58.307Z,75996.19
2022-10-10T10:14:35.209Z,75992.06
2022-10-10T10:17:13.264Z,75992.06
2022-10-10T10:19:41.843Z,76004.41
2022-10-10T10:22:28.704Z,76004.41
2022-10-10T10:24:56.286Z,76016.72
2022-10-10T10:27:25.462Z,76012.63
2022-10-10T10:29:57.325Z,76004.41
2022-10-10T10:32:38.543Z,76022.91
2022-10-10T10:35:25.014Z,76033.19
2022-10-10T10:37:56.158Z,76024.94
2022-10-10T10:40:29.018Z,76043.44
2022-10-10T10:43:06.076Z,76043.44
2022-10-10T10:45:45.173Z,76049.63
2022-10-10T10:48:30.738Z,76045.50
2022-10-10T10:51:04.133Z,76057.84
2022-10-10T10:54:00.589Z,76084.56
2022-10-10T10:56:37.489Z,76074.28
2022-10-10T10:59:35.649Z,76098.94
2022-10-10T11:02:01.798Z,76094.84
2022-10-10T11:05:22.168Z,76115.38
2022-10-10T11:07:53.982Z,76123.63
2022-10-10T11:10:26.142Z,76133.88
2022-10-10T11:12:53.883Z,76131.84
2022-10-10T11:18:36.402Z,76162.66
2022-10-10T11:21:12.684Z,76172.94
2022-10-10T11:23:43.783Z,76181.16
2022-10-10T11:26:13.925Z,76205.81
2022-10-10T11:29:10.035Z,76197.59
2022-10-10T11:31:44.795Z,76209.94
2022-10-10T11:34:27.304Z,76205.81
2022-10-10T11:37:00.203Z,76209.94
2022-10-10T11:39:41.637Z,76209.94
2022-10-10T11:42:25.563Z,76205.81
2022-10-10T11:45:11.618Z,76203.78
2022-10-10T11:47:40.752Z,76197.59
2022-10-10T11:50:30.200Z,76209.94
2022-10-10T11:53:02.455Z,76214.06
2022-10-10T11:55:32.775Z,76222.28
2022-10-10T11:58:05.605Z,76230.50
2022-10-10T12:00:34.611Z,76224.31
2022-10-10T12:03:01.711Z,76234.59
2022-10-10T12:05:29.571Z,76230.50
2022-10-10T12:08:02.586Z,76230.50
2022-10-10T12:10:34.469Z,76234.59
2022-10-10T12:13:25.130Z,76232.56
2022-10-10T12:15:52.820Z,76238.72
2022-10-10T12:18:39.797Z,76230.50
2022-10-10T12:21:10.951Z,76246.94
2022-10-10T12:23:38.101Z,76246.94
2022-10-10T12:26:05.265Z,76255.16
2022-10-10T12:28:36.888Z,76251.03
2022-10-10T12:31:04.438Z,76240.78
2022-10-10T12:33:32.635Z,76246.94
2022-10-10T12:36:18.269Z,76251.03
2022-10-10T12:39:06.207Z,76259.28
2022-10-10T12:41:47.009Z,76267.50
2022-10-10T12:44:24.519Z,76271.59
2022-10-10T12:47:10.822Z,76281.88
2022-10-10T12:49:37.934Z,76279.81
2022-10-10T12:52:08.126Z,76283.94
2022-10-10T12:54:40.032Z,76279.81
2022-10-10T12:57:10.100Z,76288.03
2022-10-10T12:59:39.263Z,76292.16
2022-10-10T13:02:09.969Z,76288.03
2022-10-10T13:04:40.349Z,76279.81
2022-10-10T13:07:07.951Z,76294.22
2022-10-10T13:09:35.959Z,76296.28
2022-10-10T13:12:05.471Z,76300.38
2022-10-10T13:14:38.838Z,76300.38
2022-10-10T13:17:24.669Z,76292.16
2022-10-10T13:19:52.028Z,76300.38
2022-10-10T13:22:19.276Z,76300.38
2022-10-10T13:24:46.649Z,76302.44
2022-10-10T13:27:31.345Z,76294.22
2022-10-10T13:29:58.464Z,76300.38
2022-10-10T13:32:33.523Z,76300.38
2022-10-10T13:35:08.236Z,76302.44
2022-10-10T13:37:35.318Z,76296.28
2022-10-10T13:40:02.637Z,76304.50
2022-10-10T13:42:31.688Z,76296.28
2022-10-10T13:45:03.118Z,76312.72
2022-10-10T13:47:39.885Z,76312.72
2022-10-10T13:50:20.293Z,76308.59
2022-10-10T13:52:48.704Z,76312.72
2022-10-10T13:55:20.529Z,76312.72
2022-10-10T13:57:51.546Z,76318.88
2022-10-10T14:00:19.108Z,76312.72
2022-10-10T14:02:46.186Z,76320.94
2022-10-10T14:05:17.101Z,76312.72
2022-10-10T14:07:46.781Z,76316.81
2022-10-10T14:10:14.477Z,76325.03
2022-10-10T14:12:57.556Z,76325.03
2022-10-10T14:15:35.964Z,76335.31
2022-10-10T14:18:03.579Z,76325.03
2022-10-10T14:20:30.612Z,76316.81
2022-10-10T14:23:01.209Z,76320.94
2022-10-10T14:25:28.315Z,76325.03
2022-10-10T14:27:55.381Z,76327.09
2022-10-10T14:30:22.729Z,76320.94
2022-10-10T14:32:50.874Z,76320.94
2022-10-10T14:35:18.047Z,76329.16
2022-10-10T14:37:45.275Z,76331.22
2022-10-10T14:40:20.607Z,76333.28
2022-10-10T14:42:47.714Z,76337.38
2022-10-10T14:45:15.508Z,76333.28
2022-10-10T14:47:43.731Z,76333.28
2022-10-10T14:50:21.469Z,76335.31
2022-10-10T14:52:48.548Z,76347.66
2022-10-10T14:55:15.624Z,76333.28
2022-10-10T14:57:42.709Z,76335.31
2022-10-10T15:00:14.809Z,76329.16
2022-10-10T15:02:45.619Z,76345.59
2022-10-10T15:05:14.611Z,76335.31
2022-10-10T15:07:41.973Z,76345.59
2022-10-10T15:12:56.715Z,76349.72
2022-10-10T15:15:23.810Z,76357.94
2022-10-10T15:17:50.935Z,76341.50
2022-10-10T15:20:18.281Z,76345.59
2022-10-10T15:22:46.998Z,76345.59
2022-10-10T15:25:14.226Z,76349.72
2022-10-10T15:27:42.209Z,76366.16
2022-10-10T15:30:10.285Z,76362.03
2022-10-10T15:32:39.011Z,76376.44
2022-10-10T15:35:06.744Z,76382.59
2022-10-10T15:37:33.986Z,76382.59
2022-10-10T15:40:02.507Z,76376.44
2022-10-10T15:42:29.964Z,76382.59
2022-10-10T15:44:58.571Z,76388.78
2022-10-10T15:47:26.072Z,76397.00
2022-10-10T15:49:53.748Z,76390.81
2022-10-10T15:52:23.707Z,76386.72
2022-10-10T15:54:50.813Z,76403.16
2022-10-10T15:57:19.024Z,76390.81
2022-10-10T15:59:46.748Z,76382.59
2022-10-10T16:02:14.688Z,76401.09
2022-10-10T16:04:41.734Z,76399.03
2022-10-10T16:09:59.390Z,76403.16
2022-10-10T16:12:26.497Z,76407.28
2022-10-10T16:14:53.621Z,76407.28
2022-10-10T16:17:23.527Z,76401.09
2022-10-10T16:19:51.297Z,76394.94
2022-10-10T16:22:18.616Z,76401.09
2022-10-10T16:24:58.284Z,76403.16
2022-10-10T16:27:27.927Z,76407.28
2022-10-10T16:29:55.347Z,76397.00
2022-10-10T16:32:22.406Z,76407.28
2022-10-10T16:34:49.605Z,76403.16
2022-10-10T16:37:16.644Z,76407.28
2022-10-10T16:39:43.867Z,76413.44
2022-10-10T16:42:11.054Z,76415.50
2022-10-10T16:44:41.925Z,76415.50
2022-10-10T16:47:09.226Z,76417.53
2022-10-10T16:49:36.311Z,76419.59
2022-10-10T16:52:04.055Z,76423.72
2022-10-10T16:54:31.130Z,76415.50
2022-10-10T16:56:59.339Z,76419.59
2022-10-10T16:59:26.425Z,76419.59
2022-10-10T17:01:53.540Z,76431.94
2022-10-10T17:04:22.383Z,76434.00
2022-10-10T17:06:50.832Z,76440.16
2022-10-10T17:09:17.962Z,76442.22
2022-10-10T17:11:50.471Z,76448.38
2022-10-10T17:14:18.969Z,76440.16
2022-10-10T17:19:36.516Z,76444.28
2022-10-10T17:22:07.377Z,76454.53
2022-10-10T17:24:34.950Z,76436.03
2022-10-10T17:27:02.680Z,76448.38
2022-10-10T17:29:31.904Z,76456.59
2022-10-10T17:32:05.602Z,76460.72
2022-10-10T17:34:35.365Z,76460.72
2022-10-10T17:37:02.703Z,76466.88
2022-10-10T17:39:29.913Z,76473.03
2022-10-10T17:41:59.863Z,76473.03
2022-10-10T17:44:27.148Z,76468.94
2022-10-10T17:46:54.209Z,76477.16
2022-10-10T17:49:21.382Z,76471.00
2022-10-10T17:51:48.520Z,76466.88
2022-10-10T17:54:15.873Z,76468.94
2022-10-10T17:56:44.671Z,76487.44
2022-10-10T17:59:11.874Z,76477.16
2022-10-10T18:01:39.362Z,76485.38
2022-10-10T18:04:06.913Z,76493.59
2022-10-10T18:06:34.048Z,76485.38
2022-10-10T18:09:01.174Z,76493.59
2022-10-10T18:11:29.747Z,76489.50
2022-10-10T18:14:00.333Z,76497.72
2022-10-10T18:16:35.061Z,76489.50
2022-10-10T18:19:13.911Z,76489.50
2022-10-10T18:21:40.930Z,76505.94
2022-10-10T18:24:08.124Z,76489.50
2022-10-10T18:26:36.518Z,76499.78
2022-10-10T18:29:05.413Z,76503.88
2022-10-10T18:31:33.416Z,76497.72
2022-10-10T18:34:00.882Z,76503.88
2022-10-10T18:36:28.898Z,76508.00
2022-10-10T18:38:59.970Z,76514.16
2022-10-10T18:41:32.852Z,76514.16
2022-10-10T18:44:03.802Z,76514.16
2022-10-10T18:46:31.053Z,76522.38
2022-10-10T18:48:58.446Z,76514.16
2022-10-10T18:51:26.138Z,76516.22
2022-10-10T18:53:55.356Z,76512.09
2022-10-10T18:56:24.962Z,76522.38
2022-10-10T18:58:53.804Z,76520.31
2022-10-10T19:01:24.961Z,76518.28
2022-10-10T19:03:52.554Z,76520.31
2022-10-10T19:06:19.735Z,76526.50
2022-10-10T19:08:48.473Z,76526.50
2022-10-10T19:11:22.516Z,76526.50
2022-10-10T19:13:49.595Z,76526.50
2022-10-10T19:16:17.433Z,76526.50
2022-10-10T19:18:46.909Z,76530.59
2022-10-10T19:21:15.592Z,76530.59
2022-10-10T19:23:43.766Z,76526.50
2022-10-10T19:26:11.907Z,76534.72
2022-10-10T19:28:39.288Z,76530.59
2022-10-10T19:31:10.189Z,76518.28
2022-10-10T19:33:37.384Z,76526.50
2022-10-10T19:36:05.327Z,76532.66
2022-10-10T19:38:34.089Z,76514.16
2022-10-10T19:41:01.541Z,76520.31
2022-10-10T19:43:29.758Z,76530.59
2022-10-10T19:45:56.905Z,76526.50
2022-10-10T19:48:25.936Z,76518.28
2022-10-10T19:50:53.939Z,76526.50
2022-10-10T19:53:21.115Z,76522.38
2022-10-10T19:56:01.602Z,76518.28
2022-10-10T19:58:29.189Z,76522.38
2022-10-10T20:00:56.351Z,76508.00
2022-10-10T20:03:23.517Z,76518.28
2022-10-10T20:05:51.681Z,76518.28
2022-10-10T20:08:20.202Z,76518.28
2022-10-10T20:10:47.327Z,76516.22
2022-10-10T20:13:16.144Z,76508.00
2022-10-10T20:15:43.643Z,76516.22
2022-10-10T20:18:10.919Z,76501.81
2022-10-10T20:20:41.661Z,76505.94
2022-10-10T20:23:08.856Z,76499.78
2022-10-10T20:25:39.470Z,76501.81
2022-10-10T20:28:06.907Z,76493.59
2022-10-10T20:30:34.533Z,76497.72
2022-10-10T20:33:01.640Z,76493.59
2022-10-10T20:35:28.916Z,76491.53
2022-10-10T20:37:55.997Z,76497.72
2022-10-10T20:40:23.015Z,76477.16
2022-10-10T20:42:50.061Z,76485.38
2022-10-10T20:45:17.213Z,76479.22
2022-10-10T20:47:44.805Z,76481.28
2022-10-10T20:50:12.123Z,76485.38
2022-10-10T20:52:39.307Z,76483.31
2022-10-10T20:55:06.592Z,76485.38
2022-10-10T20:57:33.677Z,76481.28
2022-10-10T21:00:00.787Z,76491.53
2022-10-10T21:02:27.819Z,76475.09
2022-10-10T21:04:55.056Z,76483.31
2022-10-10T21:07:22.067Z,76485.38
2022-10-10T21:09:49.254Z,76481.28
2022-10-10T21:12:17.432Z,76481.28
2022-10-10T21:14:44.528Z,76489.50
2022-10-10T21:17:11.638Z,76485.38
2022-10-10T21:19:39.621Z,76479.22
2022-10-10T21:22:06.659Z,76485.38
2022-10-10T21:24:33.760Z,76487.44
2022-10-10T21:27:01.068Z,76481.28
2022-10-10T21:29:28.360Z,76481.28
2022-10-10T21:31:55.641Z,76466.88
2022-10-10T21:34:22.672Z,76481.28
2022-10-10T21:36:50.088Z,76481.28
2022-10-10T21:39:17.132Z,76468.94
2022-10-10T21:41:45.108Z,76483.31
2022-10-10T21:44:12.785Z,76491.53
2022-10-10T21:46:40.327Z,76491.53
2022-10-10T21:49:08.857Z,76491.53
2022-10-10T21:51:37.090Z,76491.53
2022-10-10T21:54:04.950Z,76493.59
2022-10-10T21:56:32.296Z,76501.81
2022-10-10T21:59:01.593Z,76505.94
2022-10-10T22:01:29.414Z,76501.81
2022-10-10T22:03:56.591Z,76495.66
2022-10-10T22:06:23.836Z,76491.53
2022-10-10T22:08:52.435Z,76497.72
2022-10-10T22:11:22.552Z,76499.78
2022-10-10T22:13:49.913Z,76514.16
2022-10-10T22:16:17.094Z,76512.09
2022-10-10T22:18:44.147Z,76505.94
2022-10-10T22:21:13.002Z,76503.88
2022-10-10T22:23:40.232Z,76497.72
2022-10-10T22:26:08.894Z,76516.22
2022-10-10T22:28:36.003Z,76514.16
2022-10-10T22:31:06.913Z,76510.03
2022-10-10T22:33:34.906Z,76518.28
2022-10-10T22:36:02.432Z,76505.94
2022-10-10T22:38:29.805Z,76522.38
2022-10-10T22:40:57.078Z,76516.22
2022-10-10T22:43:27.033Z,76530.59
2022-10-10T22:45:56.637Z,76526.50
2022-10-10T22:48:23.917Z,76530.59
2022-10-10T22:51:20.201Z,76526.50
2022-10-10T22:53:48.585Z,76516.22
2022-10-10T22:56:16.533Z,76526.50
2022-10-10T22:58:44.188Z,76530.59
2022-10-10T23:01:12.262Z,76526.50
2022-10-10T23:03:39.409Z,76534.72
2022-10-10T23:06:07.015Z,76534.72
2022-10-10T23:08:34.645Z,76536.78
2022-10-10T23:11:02.114Z,76536.78
2022-10-10T23:13:30.264Z,76538.81
2022-10-10T23:15:58.424Z,76542.94
2022-10-10T23:18:25.884Z,76547.06
2022-10-10T23:20:52.901Z,76547.06
2022-10-10T23:23:20.002Z,76551.16
2022-10-10T23:25:47.392Z,76540.88
2022-10-10T23:28:14.771Z,76542.94
2022-10-10T23:30:42.640Z,76551.16
2022-10-10T23:33:09.670Z,76549.09
2022-10-10T23:35:36.849Z,76555.28
2022-10-10T23:38:04.038Z,76545.00
2022-10-10T23:40:32.851Z,76547.06
2022-10-10T23:43:00.130Z,76540.88
2022-10-10T23:45:27.712Z,76547.06
2022-10-10T23:47:54.757Z,76542.94
2022-10-10T23:50:21.839Z,76549.09
2022-10-10T23:52:49.413Z,76555.28
2022-10-10T23:55:16.445Z,76563.50
2022-10-10T23:57:43.831Z,76567.59
